sensor_id;sensor_type;location;lat;lon;timestamp;pressure;altitude;pressure_sealevel;temperature;humidity
68329;BME280;55182;56.864;60.554;2023-04-01T00:00:54;76460.34;;;-143.60;84.16
68329;BME280;55182;56.864;60.554;2023-04-01T00:03:20;76464.34;;;-143.60;84.09
68329;BME280;55182;56.864;60.554;2023-04-01T00:05:46;76460.34;;;-143.60;84.18
68329;BME280;55182;56.864;60.554;2023-04-01T00:08:12;76482.44;;;-143.60;84.18
68329;BME280;55182;56.864;60.554;2023-04-01T00:10:37;76456.31;;;-143.60;84.36
68329;BME280;55182;56.864;60.554;2023-04-01T00:13:03;76456.31;;;-143.60;84.28
68329;BME280;55182;56.864;60.554;2023-04-01T00:15:29;76452.31;;;-143.60;84.30
68329;BME280;55182;56.864;60.554;2023-04-01T00:17:54;76454.31;;;-143.60;84.49
68329;BME280;55182;56.864;60.554;2023-04-01T00:20:20;76448.28;;;-143.60;84.46
68329;BME280;55182;56.864;60.554;2023-04-01T00:22:45;76460.34;;;-143.60;84.75
68329;BME280;55182;56.864;60.554;2023-04-01T00:25:11;76468.38;;;-143.60;84.82
68329;BME280;55182;56.864;60.554;2023-04-01T00:27:36;76454.31;;;-143.60;85.30
68329;BME280;55182;56.864;60.554;2023-04-01T00:30:02;76456.31;;;-143.60;85.00
68329;BME280;55182;56.864;60.554;2023-04-01T00:32:27;76456.31;;;-143.60;85.21
68329;BME280;55182;56.864;60.554;2023-04-01T00:34:53;76470.38;;;-143.60;85.20
68329;BME280;55182;56.864;60.554;2023-04-01T00:37:19;76456.31;;;-143.60;85.29
68329;BME280;55182;56.864;60.554;2023-04-01T00:39:45;76452.31;;;-143.60;85.42
68329;BME280;55182;56.864;60.554;2023-04-01T00:42:10;76462.34;;;-143.60;85.30
68329;BME280;55182;56.864;60.554;2023-04-01T00:44:36;76468.38;;;-143.60;85.26
68329;BME280;55182;56.864;60.554;2023-04-01T00:47:02;76472.41;;;-143.60;85.37
68329;BME280;55182;56.864;60.554;2023-04-01T00:49:32;76476.41;;;-143.60;85.39
68329;BME280;55182;56.864;60.554;2023-04-01T00:51:59;76472.41;;;-143.60;85.26
68329;BME280;55182;56.864;60.554;2023-04-01T00:54:27;76470.38;;;-143.60;85.33
68329;BME280;55182;56.864;60.554;2023-04-01T00:56:55;76468.38;;;-143.60;85.24
68329;BME280;55182;56.864;60.554;2023-04-01T00:59:24;76458.31;;;-143.60;85.29
68329;BME280;55182;56.864;60.554;2023-04-01T01:01:50;76460.34;;;-143.60;85.16
68329;BME280;55182;56.864;60.554;2023-04-01T01:04:25;76472.41;;;-143.60;85.25
68329;BME280;55182;56.864;60.554;2023-04-01T01:12:12;76464.34;;;-143.60;85.44
68329;BME280;55182;56.864;60.554;2023-04-01T01:17:15;76454.31;;;-143.60;85.70
68329;BME280;55182;56.864;60.554;2023-04-01T01:20:03;76456.31;;;-143.60;85.58
68329;BME280;55182;56.864;60.554;2023-04-01T01:27:34;76460.34;;;-143.60;85.77
68329;BME280;55182;56.864;60.554;2023-04-01T01:30:25;76448.28;;;-143.60;86.14
68329;BME280;55182;56.864;60.554;2023-04-01T01:33:14;76452.31;;;-143.60;86.01
68329;BME280;55182;56.864;60.554;2023-04-01T01:35:50;76440.25;;;-143.60;85.80
68329;BME280;55182;56.864;60.554;2023-04-01T01:38:21;76450.28;;;-143.60;85.78
68329;BME280;55182;56.864;60.554;2023-04-01T01:40:57;76452.31;;;-143.60;85.80
68329;BME280;55182;56.864;60.554;2023-04-01T01:43:25;76438.22;;;-143.60;85.74
68329;BME280;55182;56.864;60.554;2023-04-01T01:45:55;76444.25;;;-143.60;85.69
68329;BME280;55182;56.864;60.554;2023-04-01T01:48:23;76442.25;;;-143.60;85.63
68329;BME280;55182;56.864;60.554;2023-04-01T01:50:49;76442.25;;;-143.60;85.83
68329;BME280;55182;56.864;60.554;2023-04-01T01:53:16;76436.22;;;-143.60;85.67
68329;BME280;55182;56.864;60.554;2023-04-01T01:55:43;76436.22;;;-143.60;85.67
68329;BME280;55182;56.864;60.554;2023-04-01T01:58:20;76440.25;;;-143.60;85.75
68329;BME280;55182;56.864;60.554;2023-04-01T02:00:53;76446.28;;;-143.60;85.57
68329;BME280;55182;56.864;60.554;2023-04-01T02:03:21;76440.25;;;-143.60;85.72
68329;BME280;55182;56.864;60.554;2023-04-01T02:05:48;76424.16;;;-143.60;85.46
68329;BME280;55182;56.864;60.554;2023-04-01T02:08:16;76416.13;;;-143.60;85.45
68329;BME280;55182;56.864;60.554;2023-04-01T02:10:45;76420.16;;;-143.60;85.29
68329;BME280;55182;56.864;60.554;2023-04-01T02:13:19;76428.19;;;-143.60;85.13
68329;BME280;55182;56.864;60.554;2023-04-01T02:15:48;76428.19;;;-143.60;85.34
68329;BME280;55182;56.864;60.554;2023-04-01T02:18:14;76426.19;;;-143.60;85.52
68329;BME280;55182;56.864;60.554;2023-04-01T02:20:41;76420.16;;;-143.60;85.50
68329;BME280;55182;56.864;60.554;2023-04-01T02:23:07;76424.16;;;-143.60;85.47
68329;BME280;55182;56.864;60.554;2023-04-01T02:25:34;76408.09;;;-143.60;85.48
68329;BME280;55182;56.864;60.554;2023-04-01T02:28:00;76400.06;;;-143.60;85.40
68329;BME280;55182;56.864;60.554;2023-04-01T02:30:27;76404.06;;;-143.60;85.26
68329;BME280;55182;56.864;60.554;2023-04-01T02:32:55;76404.06;;;-143.60;85.06
68329;BME280;55182;56.864;60.554;2023-04-01T02:35:20;76404.06;;;-143.60;85.05
68329;BME280;55182;56.864;60.554;2023-04-01T02:37:46;76396.03;;;-143.60;84.90
68329;BME280;55182;56.864;60.554;2023-04-01T02:40:14;76396.03;;;-143.60;84.77
68329;BME280;55182;56.864;60.554;2023-04-01T02:42:40;76388.00;;;-143.60;85.02
68329;BME280;55182;56.864;60.554;2023-04-01T02:45:05;76388.00;;;-143.60;84.44
68329;BME280;55182;56.864;60.554;2023-04-01T02:47:31;76388.00;;;-143.60;84.46
68329;BME280;55182;56.864;60.554;2023-04-01T02:49:57;76379.94;;;-143.60;84.46
68329;BME280;55182;56.864;60.554;2023-04-01T02:52:22;76383.97;;;-143.60;84.88
68329;BME280;55182;56.864;60.554;2023-04-01T02:54:48;76375.94;;;-143.60;84.91
68329;BME280;55182;56.864;60.554;2023-04-01T02:57:13;76367.91;;;-143.60;84.94
68329;BME280;55182;56.864;60.554;2023-04-01T02:59:40;76359.84;;;-143.60;84.79
68329;BME280;55182;56.864;60.554;2023-04-01T03:02:05;76361.88;;;-143.60;84.89
68329;BME280;55182;56.864;60.554;2023-04-01T03:04:30;76359.84;;;-143.60;84.48
68329;BME280;55182;56.864;60.554;2023-04-01T03:06:56;76355.84;;;-143.60;84.42
68329;BME280;55182;56.864;60.554;2023-04-01T03:09:22;76349.81;;;-143.60;84.22
68329;BME280;55182;56.864;60.554;2023-04-01T03:11:47;76339.75;;;-143.60;84.09
68329;BME280;55182;56.864;60.554;2023-04-01T03:14:13;76323.69;;;-143.60;83.64
68329;BME280;55182;56.864;60.554;2023-04-01T03:16:38;76309.63;;;-143.60;83.35
68329;BME280;55182;56.864;60.554;2023-04-01T03:19:03;76299.56;;;-143.60;83.09
68329;BME280;55182;56.864;60.554;2023-04-01T03:21:29;76295.56;;;-143.60;82.81
68329;BME280;55182;56.864;60.554;2023-04-01T03:23:55;76301.59;;;-143.60;82.50
68329;BME280;55182;56.864;60.554;2023-04-01T03:26:20;76295.56;;;-143.60;82.49
68329;BME280;55182;56.864;60.554;2023-04-01T03:28:46;76293.53;;;-143.60;82.68
68329;BME280;55182;56.864;60.554;2023-04-01T03:31:11;76307.59;;;-143.60;82.58
68329;BME280;55182;56.864;60.554;2023-04-01T03:33:43;76303.59;;;-143.60;82.57
68329;BME280;55182;56.864;60.554;2023-04-01T03:36:09;76307.59;;;-143.60;82.50
68329;BME280;55182;56.864;60.554;2023-04-01T03:38:34;76309.63;;;-143.60;82.64
68329;BME280;55182;56.864;60.554;2023-04-01T03:41:00;76307.59;;;-143.60;82.79
68329;BME280;55182;56.864;60.554;2023-04-01T03:43:26;76295.56;;;-143.60;82.52
68329;BME280;55182;56.864;60.554;2023-04-01T03:45:52;76275.47;;;-143.60;82.71
68329;BME280;55182;56.864;60.554;2023-04-01T03:48:17;76275.47;;;-143.60;82.43
68329;BME280;55182;56.864;60.554;2023-04-01T03:50:43;76271.44;;;-143.60;82.38
68329;BME280;55182;56.864;60.554;2023-04-01T03:53:09;76269.44;;;-143.60;82.06
68329;BME280;55182;56.864;60.554;2023-04-01T03:55:40;76275.47;;;-143.60;82.27
68329;BME280;55182;56.864;60.554;2023-04-01T03:58:06;76279.47;;;-143.60;82.14
68329;BME280;55182;56.864;60.554;2023-04-01T04:00:33;76267.41;;;-143.60;81.96
68329;BME280;55182;56.864;60.554;2023-04-01T04:03:02;76261.38;;;-143.60;81.59
68329;BME280;55182;56.864;60.554;2023-04-01T04:05:31;76265.41;;;-143.60;81.63
68329;BME280;55182;56.864;60.554;2023-04-01T04:07:56;76253.34;;;-143.60;81.80
68329;BME280;55182;56.864;60.554;2023-04-01T04:10:23;76229.25;;;-143.60;81.57
68329;BME280;55182;56.864;60.554;2023-04-01T04:12:48;76207.13;;;-143.60;80.82
68329;BME280;55182;56.864;60.554;2023-04-01T04:15:15;76193.06;;;-143.60;80.35
68329;BME280;55182;56.864;60.554;2023-04-01T04:17:40;76187.03;;;-143.60;80.04
68329;BME280;55182;56.864;60.554;2023-04-01T04:20:06;76174.97;;;-143.60;79.88
68329;BME280;55182;56.864;60.554;2023-04-01T04:22:32;76166.94;;;-143.60;79.73
68329;BME280;55182;56.864;60.554;2023-04-01T04:24:57;76158.91;;;-143.60;79.38
68329;BME280;55182;56.864;60.554;2023-04-01T04:27:23;76152.88;;;-143.60;78.82
68329;BME280;55182;56.864;60.554;2023-04-01T04:30:00;76134.78;;;-143.60;78.71
68329;BME280;55182;56.864;60.554;2023-04-01T04:32:26;76122.72;;;-143.60;78.62
68329;BME280;55182;56.864;60.554;2023-04-01T04:34:52;76120.72;;;-143.60;78.25
68329;BME280;55182;56.864;60.554;2023-04-01T04:37:18;76122.72;;;-143.60;78.12
68329;BME280;55182;56.864;60.554;2023-04-01T04:39:44;76114.69;;;-143.60;77.80
68329;BME280;55182;56.864;60.554;2023-04-01T04:42:09;76106.66;;;-143.60;77.90
68329;BME280;55182;56.864;60.554;2023-04-01T04:44:35;76100.63;;;-143.60;77.71
68329;BME280;55182;56.864;60.554;2023-04-01T04:47:00;76110.69;;;-143.60;77.63
68329;BME280;55182;56.864;60.554;2023-04-01T04:49:27;76102.63;;;-143.60;77.69
68329;BME280;55182;56.864;60.554;2023-04-01T04:51:52;76106.66;;;-143.60;77.56
68329;BME280;55182;56.864;60.554;2023-04-01T04:54:21;76102.63;;;-143.60;77.80
68329;BME280;55182;56.864;60.554;2023-04-01T04:56:53;76102.63;;;-143.60;77.79
68329;BME280;55182;56.864;60.554;2023-04-01T04:59:19;76094.59;;;-143.60;77.25
68329;BME280;55182;56.864;60.554;2023-04-01T05:01:59;76074.50;;;-143.60;77.23
68329;BME280;55182;56.864;60.554;2023-04-01T05:04:25;76070.50;;;-143.60;76.93
68329;BME280;55182;56.864;60.554;2023-04-01T05:06:50;76070.50;;;-143.60;77.04
68329;BME280;55182;56.864;60.554;2023-04-01T05:09:16;76082.53;;;-143.60;76.87
68329;BME280;55182;56.864;60.554;2023-04-01T05:11:43;76094.59;;;-143.60;77.23
68329;BME280;55182;56.864;60.554;2023-04-01T05:14:12;76104.66;;;-143.60;77.59
68329;BME280;55182;56.864;60.554;2023-04-01T05:16:39;76114.69;;;-143.60;77.95
68329;BME280;55182;56.864;60.554;2023-04-01T05:19:05;76102.63;;;-143.60;78.12
68329;BME280;55182;56.864;60.554;2023-04-01T05:21:31;76098.63;;;-143.60;78.28
68329;BME280;55182;56.864;60.554;2023-04-01T05:23:57;76088.56;;;-143.60;78.20
68329;BME280;55182;56.864;60.554;2023-04-01T05:26:24;76078.53;;;-143.60;77.93
68329;BME280;55182;56.864;60.554;2023-04-01T05:28:49;76074.50;;;-143.60;77.60
68329;BME280;55182;56.864;60.554;2023-04-01T05:31:15;76070.50;;;-143.60;77.76
68329;BME280;55182;56.864;60.554;2023-04-01T05:33:43;76058.44;;;-143.60;77.84
68329;BME280;55182;56.864;60.554;2023-04-01T05:36:13;76052.41;;;-143.60;77.45
68329;BME280;55182;56.864;60.554;2023-04-01T05:38:39;76038.34;;;-143.60;77.38
68329;BME280;55182;56.864;60.554;2023-04-01T05:41:08;76030.31;;;-143.60;77.58
68329;BME280;55182;56.864;60.554;2023-04-01T05:43:38;76020.25;;;-143.60;77.41
68329;BME280;55182;56.864;60.554;2023-04-01T05:46:23;76002.16;;;-143.60;77.06
68329;BME280;55182;56.864;60.554;2023-04-01T05:48:56;75972.03;;;-143.60;76.98
68329;BME280;55182;56.864;60.554;2023-04-01T05:51:23;75961.97;;;-143.60;76.33
68329;BME280;55182;56.864;60.554;2023-04-01T05:53:49;75943.91;;;-143.60;75.48
68329;BME280;55182;56.864;60.554;2023-04-01T05:56:14;75933.84;;;-143.60;74.97
68329;BME280;55182;56.864;60.554;2023-04-01T05:58:46;75917.78;;;-143.60;74.45
68329;BME280;55182;56.864;60.554;2023-04-01T06:01:12;75897.69;;;-143.60;74.75
68329;BME280;55182;56.864;60.554;2023-04-01T06:03:38;75861.50;;;-143.60;74.50
68329;BME280;55182;56.864;60.554;2023-04-01T06:06:05;75845.44;;;-143.60;73.46
68329;BME280;55182;56.864;60.554;2023-04-01T06:08:36;75831.38;;;-143.60;72.45
68329;BME280;55182;56.864;60.554;2023-04-01T06:30:06;75753.00;;;-143.60;70.25
68329;BME280;55182;56.864;60.554;2023-04-01T06:32:48;75734.91;;;-143.60;69.93
68329;BME280;55182;56.864;60.554;2023-04-01T06:40:34;75630.44;;;-143.60;67.62
68329;BME280;55182;56.864;60.554;2023-04-01T06:49:18;75513.91;;;-143.60;65.36
68329;BME280;55182;56.864;60.554;2023-04-01T06:58:25;75477.75;;;-143.60;63.57
68329;BME280;55182;56.864;60.554;2023-04-01T07:00:53;75479.75;;;-143.60;63.34
68329;BME280;55182;56.864;60.554;2023-04-01T07:03:31;75491.81;;;-143.60;63.52
68329;BME280;55182;56.864;60.554;2023-04-01T07:05:59;75479.75;;;-143.60;63.69
68329;BME280;55182;56.864;60.554;2023-04-01T07:08:27;75489.81;;;-143.60;64.15
68329;BME280;55182;56.864;60.554;2023-04-01T07:10:58;75491.81;;;-143.60;64.10
68329;BME280;55182;56.864;60.554;2023-04-01T07:22:00;75467.69;;;-143.60;63.12
68329;BME280;55182;56.864;60.554;2023-04-01T07:24:39;75439.56;;;-143.60;62.75
68329;BME280;55182;56.864;60.554;2023-04-01T07:27:11;75395.38;;;-143.60;62.01
68329;BME280;55182;56.864;60.554;2023-04-01T07:29:38;75375.28;;;-143.60;61.18
68329;BME280;55182;56.864;60.554;2023-04-01T07:37:46;75325.06;;;-143.60;60.19
68329;BME280;55182;56.864;60.554;2023-04-01T07:55:33;75270.81;;;-143.60;59.75
68329;BME280;55182;56.864;60.554;2023-04-01T08:00:48;75246.69;;;-143.60;58.76
68329;BME280;55182;56.864;60.554;2023-04-01T08:03:33;75230.63;;;-143.60;58.75
68329;BME280;55182;56.864;60.554;2023-04-01T08:11:55;75210.53;;;-143.60;57.78
68329;BME280;55182;56.864;60.554;2023-04-01T08:20:03;75146.25;;;-143.60;57.02
68329;BME280;55182;56.864;60.554;2023-04-01T08:22:36;75114.09;;;-143.60;57.18
68329;BME280;55182;56.864;60.554;2023-04-01T08:25:11;75104.06;;;-143.60;55.89
68329;BME280;55182;56.864;60.554;2023-04-01T08:27:41;75090.00;;;-143.60;55.73
68329;BME280;55182;56.864;60.554;2023-04-01T08:30:19;75071.91;;;-143.60;55.44
68329;BME280;55182;56.864;60.554;2023-04-01T08:35:24;75029.72;;;-143.60;54.56
68329;BME280;55182;56.864;60.554;2023-04-01T08:37:53;75011.66;;;-143.60;54.81
68329;BME280;55182;56.864;60.554;2023-04-01T08:40:32;74993.56;;;-143.60;54.57
68329;BME280;55182;56.864;60.554;2023-04-01T08:50:40;74877.06;;;-143.60;50.92
68329;BME280;55182;56.864;60.554;2023-04-01T09:01:53;74802.72;;;-143.60;46.18
68329;BME280;55182;56.864;60.554;2023-04-01T09:05:00;74764.56;;;-143.60;45.35
68329;BME280;55182;56.864;60.554;2023-04-01T09:18:01;74623.94;;;-143.60;41.67
68329;BME280;55182;56.864;60.554;2023-04-01T09:20:38;74615.91;;;-143.60;41.36
68329;BME280;55182;56.864;60.554;2023-04-01T09:28:20;74551.63;;;-143.60;37.89
68329;BME280;55182;56.864;60.554;2023-04-01T09:47:06;74529.53;;;-143.60;35.79
68329;BME280;55182;56.864;60.554;2023-04-01T09:49:49;74513.47;;;-143.60;35.59
68329;BME280;55182;56.864;60.554;2023-04-01T09:52:38;74503.44;;;-143.60;34.80
68329;BME280;55182;56.864;60.554;2023-04-01T10:01:12;74519.50;;;-143.60;35.23
68329;BME280;55182;56.864;60.554;2023-04-01T10:03:54;74527.53;;;-143.60;35.50
68329;BME280;55182;56.864;60.554;2023-04-01T10:27:33;74503.44;;;-143.60;35.10
68329;BME280;55182;56.864;60.554;2023-04-01T10:35:55;74483.34;;;-143.60;34.88
68329;BME280;55182;56.864;60.554;2023-04-01T10:46:44;74499.41;;;-143.60;34.84
68329;BME280;55182;56.864;60.554;2023-04-01T10:49:34;74471.28;;;-143.60;34.98
68329;BME280;55182;56.864;60.554;2023-04-01T11:03:44;74475.31;;;-143.60;34.71
68329;BME280;55182;56.864;60.554;2023-04-01T11:19:35;74471.28;;;-143.60;34.31
68329;BME280;55182;56.864;60.554;2023-04-01T11:27:46;74441.16;;;-143.60;33.82
68329;BME280;55182;56.864;60.554;2023-04-01T11:30:19;74425.09;;;-143.60;33.29
68329;BME280;55182;56.864;60.554;2023-04-01T11:33:10;74415.03;;;-143.60;32.72
68329;BME280;55182;56.864;60.554;2023-04-01T11:44:03;74405.00;;;-143.60;31.99
68329;BME280;55182;56.864;60.554;2023-04-01T12:04:25;74338.72;;;-143.60;31.63
68329;BME280;55182;56.864;60.554;2023-04-01T12:21:59;74222.22;;;-143.60;29.79
68329;BME280;55182;56.864;60.554;2023-04-01T12:27:06;74133.84;;;-143.60;29.47
68329;BME280;55182;56.864;60.554;2023-04-01T12:35:17;74234.28;;;-143.60;30.24
68329;BME280;55182;56.864;60.554;2023-04-01T12:40:35;74238.28;;;-143.60;30.35
68329;BME280;55182;56.864;60.554;2023-04-01T12:45:49;74226.25;;;-143.60;30.33
68329;BME280;55182;56.864;60.554;2023-04-01T12:48:38;74210.19;;;-143.60;29.98
68329;BME280;55182;56.864;60.554;2023-04-01T12:59:01;74214.19;;;-143.60;30.02
68329;BME280;55182;56.864;60.554;2023-04-01T13:01:47;74216.19;;;-143.60;30.02
68329;BME280;55182;56.864;60.554;2023-04-01T13:06:42;74236.28;;;-143.60;30.18
68329;BME280;55182;56.864;60.554;2023-04-01T13:19:20;74443.16;;;-143.60;32.09
68329;BME280;55182;56.864;60.554;2023-04-01T13:24:22;74473.28;;;-143.60;32.32
68329;BME280;55182;56.864;60.554;2023-04-01T13:29:21;74459.25;;;-143.60;32.33
68329;BME280;55182;56.864;60.554;2023-04-01T13:36:57;74487.34;;;-143.60;32.33
68329;BME280;55182;56.864;60.554;2023-04-01T13:39:38;74491.38;;;-143.60;32.26
68329;BME280;55182;56.864;60.554;2023-04-01T13:47:44;74539.59;;;-143.60;32.29
68329;BME280;55182;56.864;60.554;2023-04-01T13:50:17;74543.59;;;-143.60;32.50
68329;BME280;55182;56.864;60.554;2023-04-01T13:56:15;74569.72;;;-143.60;32.80
68329;BME280;55182;56.864;60.554;2023-04-01T13:58:38;74585.78;;;-143.60;32.88
68329;BME280;55182;56.864;60.554;2023-04-01T14:01:10;74599.84;;;-143.60;33.03
68329;BME280;55182;56.864;60.554;2023-04-01T14:06:27;74609.88;;;-143.60;33.03
68329;BME280;55182;56.864;60.554;2023-04-01T14:11:32;74615.91;;;-143.60;33.07
68329;BME280;55182;56.864;60.554;2023-04-01T14:14:21;74605.88;;;-143.60;32.84
68329;BME280;55182;56.864;60.554;2023-04-01T14:19:56;74627.97;;;-143.60;32.80
68329;BME280;55182;56.864;60.554;2023-04-01T14:30:16;74696.25;;;-143.60;33.15
68329;BME280;55182;56.864;60.554;2023-04-01T14:36:03;74716.34;;;-143.60;33.27
68329;BME280;55182;56.864;60.554;2023-04-01T14:38:34;74724.38;;;-143.60;33.36
68329;BME280;55182;56.864;60.554;2023-04-01T14:48:56;74716.34;;;-143.60;33.09
68329;BME280;55182;56.864;60.554;2023-04-01T14:51:35;74736.44;;;-143.60;33.13
68329;BME280;55182;56.864;60.554;2023-04-01T14:54:05;74732.41;;;-143.60;33.12
68329;BME280;55182;56.864;60.554;2023-04-01T14:56:41;74734.44;;;-143.60;33.02
68329;BME280;55182;56.864;60.554;2023-04-01T14:59:13;74730.41;;;-143.60;33.02
68329;BME280;55182;56.864;60.554;2023-04-01T15:01:42;74730.41;;;-143.60;33.15
68329;BME280;55182;56.864;60.554;2023-04-01T15:04:23;74738.44;;;-143.60;33.35
68329;BME280;55182;56.864;60.554;2023-04-01T15:14:47;74762.56;;;-143.60;33.12
68329;BME280;55182;56.864;60.554;2023-04-01T15:17:20;74776.63;;;-143.60;33.27
68329;BME280;55182;56.864;60.554;2023-04-01T15:27:44;74836.88;;;-143.60;33.92
68329;BME280;55182;56.864;60.554;2023-04-01T15:42:49;74899.16;;;-143.60;34.61
68329;BME280;55182;56.864;60.554;2023-04-01T16:02:48;74933.31;;;-143.60;35.31
68329;BME280;55182;56.864;60.554;2023-04-01T16:05:25;74937.31;;;-143.60;35.15
68329;BME280;55182;56.864;60.554;2023-04-01T16:07:58;74953.41;;;-143.60;35.41
68329;BME280;55182;56.864;60.554;2023-04-01T16:18:21;74969.47;;;-143.60;35.77
68329;BME280;55182;56.864;60.554;2023-04-01T16:25:49;74989.56;;;-143.60;36.13
68329;BME280;55182;56.864;60.554;2023-04-01T16:28:31;74997.59;;;-143.60;36.36
68329;BME280;55182;56.864;60.554;2023-04-01T16:31:00;75005.63;;;-143.60;36.67
68329;BME280;55182;56.864;60.554;2023-04-01T16:36:10;75025.72;;;-143.60;36.98
68329;BME280;55182;56.864;60.554;2023-04-01T16:43:39;75073.94;;;-143.60;37.68
68329;BME280;55182;56.864;60.554;2023-04-01T16:46:19;75085.97;;;-143.60;37.73
68329;BME280;55182;56.864;60.554;2023-04-01T17:02:16;75188.44;;;-143.60;39.43
68329;BME280;55182;56.864;60.554;2023-04-01T17:07:34;75200.50;;;-143.60;39.74
68329;BME280;55182;56.864;60.554;2023-04-01T17:20:13;75250.72;;;-143.60;40.75
68329;BME280;55182;56.864;60.554;2023-04-01T17:25:29;75266.78;;;-143.60;40.93
68329;BME280;55182;56.864;60.554;2023-04-01T17:28:10;75270.81;;;-143.60;41.03
68329;BME280;55182;56.864;60.554;2023-04-01T17:35:53;75294.91;;;-143.60;41.70
68329;BME280;55182;56.864;60.554;2023-04-01T17:40:57;75300.94;;;-143.60;41.92
68329;BME280;55182;56.864;60.554;2023-04-01T17:46:19;75311.00;;;-143.60;42.16
68329;BME280;55182;56.864;60.554;2023-04-01T17:51:39;75335.09;;;-143.60;42.75
68329;BME280;55182;56.864;60.554;2023-04-01T17:56:54;75347.16;;;-143.60;43.15
68329;BME280;55182;56.864;60.554;2023-04-01T17:59:35;75365.22;;;-143.60;43.51
68329;BME280;55182;56.864;60.554;2023-04-01T18:02:21;75381.31;;;-143.60;43.53
68329;BME280;55182;56.864;60.554;2023-04-01T18:10:17;75451.63;;;-143.60;44.57
68329;BME280;55182;56.864;60.554;2023-04-01T18:15:29;75473.72;;;-143.60;45.07
68329;BME280;55182;56.864;60.554;2023-04-01T18:20:28;75483.78;;;-143.60;45.59
68329;BME280;55182;56.864;60.554;2023-04-01T18:23:03;75487.78;;;-143.60;45.65
68329;BME280;55182;56.864;60.554;2023-04-01T18:25:36;75493.81;;;-143.60;45.35
68329;BME280;55182;56.864;60.554;2023-04-01T18:30:36;75497.84;;;-143.60;45.85
68329;BME280;55182;56.864;60.554;2023-04-01T18:33:29;75501.84;;;-143.60;45.87
68329;BME280;55182;56.864;60.554;2023-04-01T18:35:51;75501.84;;;-143.60;46.07
68329;BME280;55182;56.864;60.554;2023-04-01T18:41:14;75497.84;;;-143.60;46.23
68329;BME280;55182;56.864;60.554;2023-04-01T18:46:34;75491.81;;;-143.60;46.29
68329;BME280;55182;56.864;60.554;2023-04-01T18:51:51;75515.91;;;-143.60;46.96
68329;BME280;55182;56.864;60.554;2023-04-01T18:56:50;75529.97;;;-143.60;47.26
68329;BME280;55182;56.864;60.554;2023-04-01T18:59:25;75544.03;;;-143.60;47.82
68329;BME280;55182;56.864;60.554;2023-04-01T19:01:58;75556.09;;;-143.60;48.32
68329;BME280;55182;56.864;60.554;2023-04-01T19:04:33;75568.16;;;-143.60;48.57
68329;BME280;55182;56.864;60.554;2023-04-01T19:07:19;75576.19;;;-143.60;48.93
68329;BME280;55182;56.864;60.554;2023-04-01T19:09:46;75588.25;;;-143.60;49.24
68329;BME280;55182;56.864;60.554;2023-04-01T19:35:18;75664.59;;;-143.60;52.40
68329;BME280;55182;56.864;60.554;2023-04-01T19:37:47;75676.66;;;-143.60;52.42
68329;BME280;55182;56.864;60.554;2023-04-01T19:43:08;75680.69;;;-143.60;53.25
68329;BME280;55182;56.864;60.554;2023-04-01T19:45:56;75686.69;;;-143.60;53.39
68329;BME280;55182;56.864;60.554;2023-04-01T19:51:09;75714.84;;;-143.60;54.44
68329;BME280;55182;56.864;60.554;2023-04-01T19:58:50;75740.94;;;-143.60;55.31
68329;BME280;55182;56.864;60.554;2023-04-01T20:01:52;75757.03;;;-143.60;55.79
68329;BME280;55182;56.864;60.554;2023-04-01T20:04:14;75759.03;;;-143.60;56.15
68329;BME280;55182;56.864;60.554;2023-04-01T20:07:04;75765.06;;;-143.60;56.17
68329;BME280;55182;56.864;60.554;2023-04-01T20:12:19;75785.16;;;-143.60;56.62
68329;BME280;55182;56.864;60.554;2023-04-01T20:14:54;75791.19;;;-143.60;57.08
68329;BME280;55182;56.864;60.554;2023-04-01T20:17:38;75797.22;;;-143.60;57.38
68329;BME280;55182;56.864;60.554;2023-04-01T20:22:38;75821.31;;;-143.60;58.22
68329;BME280;55182;56.864;60.554;2023-04-01T20:33:14;75849.44;;;-143.60;58.93
68329;BME280;55182;56.864;60.554;2023-04-01T20:41:02;75863.53;;;-143.60;59.68
68329;BME280;55182;56.864;60.554;2023-04-01T20:43:35;75869.53;;;-143.60;59.77
68329;BME280;55182;56.864;60.554;2023-04-01T20:56:28;75885.63;;;-143.60;60.53
68329;BME280;55182;56.864;60.554;2023-04-01T21:01:25;75897.69;;;-143.60;60.45
68329;BME280;55182;56.864;60.554;2023-04-01T21:14:07;75913.75;;;-143.60;61.10
68329;BME280;55182;56.864;60.554;2023-04-01T21:16:39;75921.78;;;-143.60;61.11
68329;BME280;55182;56.864;60.554;2023-04-01T21:19:16;75917.78;;;-143.60;61.12
68329;BME280;55182;56.864;60.554;2023-04-01T21:34:52;75903.72;;;-143.60;60.45
68329;BME280;55182;56.864;60.554;2023-04-01T21:40:24;75909.72;;;-143.60;60.48
68329;BME280;55182;56.864;60.554;2023-04-01T21:43:07;75907.72;;;-143.60;60.53
68329;BME280;55182;56.864;60.554;2023-04-01T21:45:44;75909.72;;;-143.60;60.53
68329;BME280;55182;56.864;60.554;2023-04-01T21:51:07;75921.78;;;-143.60;60.52
68329;BME280;55182;56.864;60.554;2023-04-01T22:01:22;75957.97;;;-143.60;61.22
68329;BME280;55182;56.864;60.554;2023-04-01T22:07:09;75961.97;;;-143.60;61.69
68329;BME280;55182;56.864;60.554;2023-04-01T22:09:32;75966.00;;;-143.60;61.51
68329;BME280;55182;56.864;60.554;2023-04-01T22:12:02;75966.00;;;-143.60;61.51
68329;BME280;55182;56.864;60.554;2023-04-01T22:24:19;75976.03;;;-143.60;61.43
68329;BME280;55182;56.864;60.554;2023-04-01T22:26:49;75982.06;;;-143.60;61.41
68329;BME280;55182;56.864;60.554;2023-04-01T22:31:48;75988.09;;;-143.60;61.44
68329;BME280;55182;56.864;60.554;2023-04-01T22:35:01;75994.13;;;-143.60;61.88
68329;BME280;55182;56.864;60.554;2023-04-01T22:49:47;75982.06;;;-143.60;61.01
68329;BME280;55182;56.864;60.554;2023-04-01T22:52:35;75990.09;;;-143.60;61.03